createdAt,value
2019-01-31T00:00:32.878Z,93855
2019-01-31T00:01:42.392Z,93856
2019-01-31T00:02:51.895Z,93854
2019-01-31T00:04:01.417Z,93853
2019-01-31T00:05:10.933Z,93852
2019-01-31T00:06:20.444Z,93852
2019-01-31T00:07:29.970Z,93850
2019-01-31T00:08:45.713Z,93850
2019-01-31T00:09:48.987Z,93846
2019-01-31T00:10:58.500Z,93843
2019-01-31T00:12:08.025Z,93846
2019-01-31T00:13:17.530Z,93840
2019-01-31T00:14:27.055Z,93841
2019-01-31T00:15:36.567Z,93838
2019-01-31T00:16:46.085Z,93837
2019-01-31T00:17:55.607Z,93838
2019-01-31T00:19:05.137Z,93839
2019-01-31T00:20:14.649Z,93844
2019-01-31T00:21:24.153Z,93843
2019-01-31T00:22:33.666Z,93842
2019-01-31T00:23:43.186Z,93840
2019-01-31T00:24:52.726Z,93844
2019-01-31T00:26:02.242Z,93842
2019-01-31T00:27:11.856Z,93838
2019-01-31T00:28:21.278Z,93843
2019-01-31T00:29:30.794Z,93840
2019-01-31T00:30:40.305Z,93846
2019-01-31T00:31:49.819Z,93840
2019-01-31T00:32:59.340Z,93841
2019-01-31T00:34:08.865Z,93843
2019-01-31T00:35:18.383Z,93842
2019-01-31T00:36:27.896Z,93843
2019-01-31T00:37:37.400Z,93843
2019-01-31T00:38:56.466Z,93836
2019-01-31T00:39:57.401Z,93837
2019-01-31T00:41:06.910Z,93838
2019-01-31T00:42:16.428Z,93837
2019-01-31T00:43:25.953Z,93835
2019-01-31T00:44:35.464Z,93832
2019-01-31T00:45:44.970Z,93832
2019-01-31T00:46:54.483Z,93834
2019-01-31T00:48:04.056Z,93827
2019-01-31T00:49:13.562Z,93829
2019-01-31T00:50:23.077Z,93827
2019-01-31T00:51:32.624Z,93831
2019-01-31T00:52:42.141Z,93829
2019-01-31T00:53:51.659Z,93831
2019-01-31T00:55:02.179Z,93827
2019-01-31T00:56:11.671Z,93824
2019-01-31T00:57:21.190Z,93830
2019-01-31T00:58:30.708Z,93827
2019-01-31T00:59:40.240Z,93823
2019-01-31T01:00:49.750Z,93830
2019-01-31T01:01:59.237Z,93829
2019-01-31T01:03:08.744Z,93834
2019-01-31T01:04:18.328Z,93827
2019-01-31T01:05:27.844Z,93832
2019-01-31T01:06:37.355Z,93828
2019-01-31T01:07:46.868Z,93836
2019-01-31T01:09:07.402Z,93828
2019-01-31T01:10:06.869Z,93836
2019-01-31T01:11:16.378Z,93835
2019-01-31T01:12:25.892Z,93833
2019-01-31T01:13:35.394Z,93837
2019-01-31T01:14:44.912Z,93835
2019-01-31T01:15:54.412Z,93834
2019-01-31T01:17:03.930Z,93830
2019-01-31T01:18:13.440Z,93837
2019-01-31T01:19:22.952Z,93839
2019-01-31T01:20:32.453Z,93836
2019-01-31T01:21:41.963Z,93834
2019-01-31T01:22:51.480Z,93835
2019-01-31T01:24:01.000Z,93835
2019-01-31T01:25:10.493Z,93837
2019-01-31T01:26:20.004Z,93837
2019-01-31T01:27:29.513Z,93837
2019-01-31T01:28:39.151Z,93835
2019-01-31T01:29:48.560Z,93838
2019-01-31T01:30:58.074Z,93837
2019-01-31T01:32:07.586Z,93832
2019-01-31T01:33:17.098Z,93837
2019-01-31T01:34:26.621Z,93834
2019-01-31T01:35:36.131Z,93831
2019-01-31T01:36:45.645Z,93830
2019-01-31T01:37:55.149Z,93830
2019-01-31T01:39:04.697Z,93825
2019-01-31T01:40:15.181Z,93830
2019-01-31T01:41:24.692Z,93826
2019-01-31T01:42:34.194Z,93828
2019-01-31T01:43:43.728Z,93822
2019-01-31T01:44:53.231Z,93829
2019-01-31T01:46:02.756Z,93830
2019-01-31T01:47:12.265Z,93824
2019-01-31T01:48:22.777Z,93832
2019-01-31T01:49:32.293Z,93826
2019-01-31T01:50:41.808Z,93828
2019-01-31T01:51:51.334Z,93825
2019-01-31T01:53:00.831Z,93826
2019-01-31T01:54:10.350Z,93825
2019-01-31T01:55:19.870Z,93824
2019-01-31T01:56:29.380Z,93824
2019-01-31T01:57:38.973Z,93823
2019-01-31T01:58:48.442Z,93818
2019-01-31T01:59:57.964Z,93820
2019-01-31T02:01:07.468Z,93822
2019-01-31T02:02:17.086Z,93818
2019-01-31T02:03:26.590Z,93820
2019-01-31T02:04:36.118Z,93815
2019-01-31T02:05:45.637Z,93814
2019-01-31T02:06:55.228Z,93812
2019-01-31T02:08:04.737Z,93809
2019-01-31T02:09:14.255Z,93807
2019-01-31T02:10:24.752Z,93805
2019-01-31T02:11:34.274Z,93805
2019-01-31T02:12:43.791Z,93808
2019-01-31T02:13:53.310Z,93806
2019-01-31T02:15:02.867Z,93798
2019-01-31T02:16:12.376Z,93797
2019-01-31T02:17:21.893Z,93796
2019-01-31T02:18:31.548Z,93791
2019-01-31T02:19:40.938Z,93797
2019-01-31T02:20:50.450Z,93789
2019-01-31T02:21:59.953Z,93791
2019-01-31T02:23:09.459Z,93791
2019-01-31T02:24:18.981Z,93789
2019-01-31T02:25:28.575Z,93784
2019-01-31T02:26:38.034Z,93781
2019-01-31T02:27:47.540Z,93782
2019-01-31T02:28:57.085Z,93782
2019-01-31T02:30:06.606Z,93775
2019-01-31T02:31:16.110Z,93777
2019-01-31T02:32:25.617Z,93775
2019-01-31T02:33:35.122Z,93772
2019-01-31T02:34:44.653Z,93777
2019-01-31T02:35:54.169Z,93777
2019-01-31T02:37:03.675Z,93773
2019-01-31T02:38:13.191Z,93774
2019-01-31T02:39:22.735Z,93775
2019-01-31T02:40:32.241Z,93772
2019-01-31T02:41:41.784Z,93769
2019-01-31T02:42:52.346Z,93770
2019-01-31T02:44:01.949Z,93763
2019-01-31T02:45:11.521Z,93767
2019-01-31T02:46:21.038Z,93765
2019-01-31T02:47:30.558Z,93768
2019-01-31T02:48:40.068Z,93760
2019-01-31T02:49:49.613Z,93757
2019-01-31T02:50:59.123Z,93758
2019-01-31T02:52:08.640Z,93755
2019-01-31T02:53:18.153Z,93753
2019-01-31T02:54:27.673Z,93750
2019-01-31T02:55:37.195Z,93748
2019-01-31T02:56:46.701Z,93747
2019-01-31T02:57:56.203Z,93741
2019-01-31T02:59:05.727Z,93749
2019-01-31T03:00:15.250Z,93745
2019-01-31T03:01:24.760Z,93747
2019-01-31T03:02:34.279Z,93746
2019-01-31T03:03:43.812Z,93739
2019-01-31T03:04:53.334Z,93739
2019-01-31T03:06:02.840Z,93743
2019-01-31T03:07:12.344Z,93741
2019-01-31T03:08:21.850Z,93737
2019-01-31T03:09:31.387Z,93739
2019-01-31T03:10:40.906Z,93735
2019-01-31T03:11:51.396Z,93736
2019-01-31T03:13:00.896Z,93737
2019-01-31T03:14:10.740Z,93730
2019-01-31T03:15:19.917Z,93733
2019-01-31T03:16:29.418Z,93731
2019-01-31T03:17:38.936Z,93728
2019-01-31T03:18:48.491Z,93728
2019-01-31T03:19:57.963Z,93720
2019-01-31T03:21:07.491Z,93725
2019-01-31T03:22:17.004Z,93730
2019-01-31T03:23:26.532Z,93725
2019-01-31T03:24:36.059Z,93725
2019-01-31T03:25:45.566Z,93721
2019-01-31T03:26:55.087Z,93723
2019-01-31T03:28:04.595Z,93721
2019-01-31T03:29:14.119Z,93724
2019-01-31T03:30:24.857Z,93719
2019-01-31T03:31:33.114Z,93717
2019-01-31T03:32:43.430Z,93713
2019-01-31T03:33:52.929Z,93712
2019-01-31T03:35:02.436Z,93715
2019-01-31T03:36:11.945Z,93715
2019-01-31T03:37:21.454Z,93715
2019-01-31T03:38:30.978Z,93716
2019-01-31T03:39:40.502Z,93710
2019-01-31T03:40:50.020Z,93711
2019-01-31T03:41:59.534Z,93710
2019-01-31T03:43:09.035Z,93708
2019-01-31T03:44:18.560Z,93713
2019-01-31T03:45:28.072Z,93714
2019-01-31T03:46:37.574Z,93713
2019-01-31T03:47:47.088Z,93705
2019-01-31T03:48:56.614Z,93715
2019-01-31T03:50:06.845Z,93708
2019-01-31T03:51:15.625Z,93704
2019-01-31T03:52:25.145Z,93705
2019-01-31T03:53:34.655Z,93703
2019-01-31T03:54:44.172Z,93706
2019-01-31T03:55:53.694Z,93706
2019-01-31T03:57:03.206Z,93703
2019-01-31T03:58:12.714Z,93701
2019-01-31T03:59:22.230Z,93703
2019-01-31T04:00:31.748Z,93704
2019-01-31T04:01:41.329Z,93704
2019-01-31T04:02:50.844Z,93696
2019-01-31T04:04:00.352Z,93698
2019-01-31T04:05:09.882Z,93692
2019-01-31T04:06:19.387Z,93694
2019-01-31T04:07:28.900Z,93695
2019-01-31T04:08:38.407Z,93697
2019-01-31T04:09:47.938Z,93693
2019-01-31T04:10:57.450Z,93692
2019-01-31T04:12:06.970Z,93690
2019-01-31T04:13:16.492Z,93687
2019-01-31T04:14:27.371Z,93691
2019-01-31T04:15:35.536Z,93688
2019-01-31T04:16:45.042Z,93685
2019-01-31T04:17:55.582Z,93684
2019-01-31T04:19:05.075Z,93683
2019-01-31T04:20:14.598Z,93683
2019-01-31T04:21:24.110Z,93679
2019-01-31T04:22:33.629Z,93675
2019-01-31T04:23:43.144Z,93677
2019-01-31T04:24:52.682Z,93673
2019-01-31T04:26:02.200Z,93670
2019-01-31T04:27:12.701Z,93666
2019-01-31T04:28:22.216Z,93665
2019-01-31T04:29:32.747Z,93665
2019-01-31T04:30:42.273Z,93664
2019-01-31T04:31:51.774Z,93660
2019-01-31T04:33:01.279Z,93654
2019-01-31T04:34:10.807Z,93659
2019-01-31T04:35:20.358Z,93654
2019-01-31T04:36:29.849Z,93657
2019-01-31T04:37:39.369Z,93656
2019-01-31T04:38:48.882Z,93657
2019-01-31T04:39:58.412Z,93650
2019-01-31T04:41:07.924Z,93653
2019-01-31T04:42:17.427Z,93650
2019-01-31T04:43:26.945Z,93648
2019-01-31T04:44:36.513Z,93643
2019-01-31T04:45:46.030Z,93646
2019-01-31T04:46:55.564Z,93646
2019-01-31T04:48:05.059Z,93640
2019-01-31T04:49:14.589Z,93642
2019-01-31T04:50:24.114Z,93643
2019-01-31T04:51:33.631Z,93644
2019-01-31T04:52:43.189Z,93640
2019-01-31T04:53:52.643Z,93640
2019-01-31T04:55:02.166Z,93640
2019-01-31T04:56:11.673Z,93637
2019-01-31T04:57:21.182Z,93641
2019-01-31T04:58:30.782Z,93638
2019-01-31T04:59:40.306Z,93637
2019-01-31T05:00:49.810Z,93638
2019-01-31T05:01:59.327Z,93639
2019-01-31T05:03:08.834Z,93632
2019-01-31T05:04:18.348Z,93635
2019-01-31T05:05:27.899Z,93636
2019-01-31T05:06:37.406Z,93631
2019-01-31T05:07:47.025Z,93636
2019-01-31T05:08:56.536Z,93632
2019-01-31T05:10:06.057Z,93637
2019-01-31T05:11:15.590Z,93638
2019-01-31T05:12:25.102Z,93637
2019-01-31T05:13:34.612Z,93641
2019-01-31T05:14:44.128Z,93644
2019-01-31T05:15:53.654Z,93646
2019-01-31T05:17:04.181Z,93643
2019-01-31T05:18:13.684Z,93644
2019-01-31T05:19:23.205Z,93644
2019-01-31T05:20:32.723Z,93646
2019-01-31T05:21:42.249Z,93649
2019-01-31T05:22:51.758Z,93649
2019-01-31T05:24:01.283Z,93646
2019-01-31T05:25:10.807Z,93645
2019-01-31T05:26:20.360Z,93644
2019-01-31T05:27:29.887Z,93649
2019-01-31T05:28:39.416Z,93648
2019-01-31T05:29:48.954Z,93645
2019-01-31T05:30:58.487Z,93651
2019-01-31T05:32:08.008Z,93660
2019-01-31T05:33:18.473Z,93664
2019-01-31T05:34:28.110Z,93660
2019-01-31T05:35:38.688Z,93663
2019-01-31T05:36:48.181Z,93667
2019-01-31T05:37:57.699Z,93663
2019-01-31T05:39:07.207Z,93664
2019-01-31T05:40:16.757Z,93663
2019-01-31T05:41:26.251Z,93661
2019-01-31T05:42:35.758Z,93663
2019-01-31T05:43:45.265Z,93663
2019-01-31T05:44:55.587Z,93665
2019-01-31T05:46:05.128Z,93661
2019-01-31T05:47:14.664Z,93662
2019-01-31T05:48:24.167Z,93661
2019-01-31T05:49:33.724Z,93656
2019-01-31T05:50:43.382Z,93657
2019-01-31T05:51:53.125Z,93659
2019-01-31T05:53:02.699Z,93660
2019-01-31T05:54:12.195Z,93663
2019-01-31T05:55:21.708Z,93659
2019-01-31T05:56:31.243Z,93655
2019-01-31T05:57:40.777Z,93657
2019-01-31T05:58:50.318Z,93658
2019-01-31T05:59:59.808Z,93660
2019-01-31T06:01:09.334Z,93662
2019-01-31T06:02:18.839Z,93663
2019-01-31T06:03:28.346Z,93658
2019-01-31T06:04:37.856Z,93656
2019-01-31T06:05:47.381Z,93651
2019-01-31T06:06:56.898Z,93656
2019-01-31T06:08:07.377Z,93656
2019-01-31T06:09:17.010Z,93656
2019-01-31T06:10:26.418Z,93654
2019-01-31T06:11:36.926Z,93652
2019-01-31T06:12:46.430Z,93654
2019-01-31T06:13:55.943Z,93654
2019-01-31T06:15:05.455Z,93659
2019-01-31T06:16:14.984Z,93649
2019-01-31T06:17:24.497Z,93650
2019-01-31T06:18:34.108Z,93657
2019-01-31T06:19:43.614Z,93652
2019-01-31T06:20:53.142Z,93658
2019-01-31T06:22:02.654Z,93659
2019-01-31T06:23:12.165Z,93660
2019-01-31T06:24:21.682Z,93664
2019-01-31T06:25:31.210Z,93662
2019-01-31T06:26:40.740Z,93662
2019-01-31T06:27:50.267Z,93662
2019-01-31T06:28:59.778Z,93663
2019-01-31T06:30:09.295Z,93662
2019-01-31T06:31:19.032Z,93662
2019-01-31T06:32:28.645Z,93667
2019-01-31T06:33:38.507Z,93664
2019-01-31T06:34:48.085Z,93668
2019-01-31T06:35:57.607Z,93665
2019-01-31T06:37:07.125Z,93672
2019-01-31T06:38:16.640Z,93664
2019-01-31T06:39:26.156Z,93671
2019-01-31T06:40:35.666Z,93670
2019-01-31T06:41:45.177Z,93670
2019-01-31T06:42:54.693Z,93670
2019-01-31T06:44:04.212Z,93672
2019-01-31T06:45:13.738Z,93669
2019-01-31T06:46:23.266Z,93674
2019-01-31T06:47:33.391Z,93672
2019-01-31T06:48:43.120Z,93668
2019-01-31T06:49:52.645Z,93672
2019-01-31T06:51:02.222Z,93672
2019-01-31T06:52:11.792Z,93672
2019-01-31T06:53:21.330Z,93670
2019-01-31T06:54:30.920Z,93672
2019-01-31T06:55:40.509Z,93673
2019-01-31T06:56:50.058Z,93671
2019-01-31T06:57:59.589Z,93674
2019-01-31T06:59:10.103Z,93676
2019-01-31T07:00:19.659Z,93674
2019-01-31T07:01:29.268Z,93667
2019-01-31T07:02:38.799Z,93672
2019-01-31T07:03:48.409Z,93673
2019-01-31T07:04:57.960Z,93671
2019-01-31T07:06:07.511Z,93671
2019-01-31T07:07:17.051Z,93674
2019-01-31T07:08:26.599Z,93676
2019-01-31T07:09:36.131Z,93675
2019-01-31T07:10:45.651Z,93680
2019-01-31T07:11:55.238Z,93679
2019-01-31T07:13:04.774Z,93675
2019-01-31T07:14:14.321Z,93672
2019-01-31T07:15:23.921Z,93671
2019-01-31T07:16:33.461Z,93677
2019-01-31T07:17:43.025Z,93681
2019-01-31T07:18:52.584Z,93681
2019-01-31T07:20:02.143Z,93675
2019-01-31T07:21:11.741Z,93682
2019-01-31T07:22:21.306Z,93669
2019-01-31T07:23:30.843Z,93673
2019-01-31T07:24:40.407Z,93671
2019-01-31T07:25:49.939Z,93677
2019-01-31T07:26:59.597Z,93674
2019-01-31T07:28:09.139Z,93673
2019-01-31T07:29:18.689Z,93671
2019-01-31T07:30:28.239Z,93667
2019-01-31T07:31:37.808Z,93671
2019-01-31T07:32:47.348Z,93675
2019-01-31T07:33:56.882Z,93671
2019-01-31T07:35:06.428Z,93675
2019-01-31T07:36:15.975Z,93668
2019-01-31T07:37:25.518Z,93668
2019-01-31T07:38:35.073Z,93670
2019-01-31T07:39:44.665Z,93670
2019-01-31T07:40:54.160Z,93671
2019-01-31T07:42:03.697Z,93668
2019-01-31T07:43:13.245Z,93661
2019-01-31T07:44:22.786Z,93666
2019-01-31T07:45:32.324Z,93667
2019-01-31T07:46:41.865Z,93667
2019-01-31T07:47:51.391Z,93676
2019-01-31T07:49:00.927Z,93678
2019-01-31T07:50:10.450Z,93677
2019-01-31T07:51:19.975Z,93681
2019-01-31T07:52:29.519Z,93683
2019-01-31T07:53:39.767Z,93682
2019-01-31T07:54:49.331Z,93680
2019-01-31T07:55:58.850Z,93685
2019-01-31T07:57:08.399Z,93690
2019-01-31T07:58:20.468Z,93682
2019-01-31T07:59:27.493Z,93684
2019-01-31T08:00:37.053Z,93685
2019-01-31T08:01:46.632Z,93686
2019-01-31T08:02:56.170Z,93688
2019-01-31T08:04:05.699Z,93689
2019-01-31T08:05:15.229Z,93689
2019-01-31T08:06:24.775Z,93691
2019-01-31T08:07:34.328Z,93688
2019-01-31T08:08:43.846Z,93688
2019-01-31T08:09:56.012Z,93683
2019-01-31T08:11:02.900Z,93687
2019-01-31T08:12:13.447Z,93688
2019-01-31T08:13:22.981Z,93687
2019-01-31T08:14:32.506Z,93692
2019-01-31T08:15:42.039Z,93693
2019-01-31T08:16:51.572Z,93688
2019-01-31T08:18:01.127Z,93683
2019-01-31T08:19:10.630Z,93685
2019-01-31T08:20:20.153Z,93678
2019-01-31T08:21:29.676Z,93678
2019-01-31T08:22:39.218Z,93678
2019-01-31T08:23:48.741Z,93676
2019-01-31T08:24:58.256Z,93680
2019-01-31T08:26:07.772Z,93684
2019-01-31T08:27:17.305Z,93685
2019-01-31T08:28:26.811Z,93689
2019-01-31T08:29:36.338Z,93691
2019-01-31T08:30:45.857Z,93696
2019-01-31T08:31:55.404Z,93694
2019-01-31T08:33:04.948Z,93697
2019-01-31T08:34:14.461Z,93699
2019-01-31T08:35:23.997Z,93693
2019-01-31T08:36:33.515Z,93695
2019-01-31T08:37:43.052Z,93701
2019-01-31T08:38:52.570Z,93700
2019-01-31T08:40:02.143Z,93701
2019-01-31T08:41:11.626Z,93702
2019-01-31T08:42:21.177Z,93707
2019-01-31T08:43:30.695Z,93710
2019-01-31T08:44:40.219Z,93708
2019-01-31T08:45:49.730Z,93704
2019-01-31T08:46:59.288Z,93708
2019-01-31T08:48:08.813Z,93707
2019-01-31T08:49:18.331Z,93707
2019-01-31T08:50:27.953Z,93702
2019-01-31T08:51:37.383Z,93702
2019-01-31T08:52:47.923Z,93705
2019-01-31T08:53:57.489Z,93702
2019-01-31T08:55:07.000Z,93706
2019-01-31T08:56:16.530Z,93700
2019-01-31T08:57:26.059Z,93696
2019-01-31T08:58:36.660Z,93697
2019-01-31T08:59:46.101Z,93693
2019-01-31T09:00:55.626Z,93695
2019-01-31T09:02:05.157Z,93689
2019-01-31T09:03:15.662Z,93689
2019-01-31T09:04:25.186Z,93690
2019-01-31T09:05:34.721Z,93690
2019-01-31T09:06:44.260Z,93693
2019-01-31T09:07:53.806Z,93697
2019-01-31T09:09:03.329Z,93697
2019-01-31T09:10:12.852Z,93699
2019-01-31T09:11:22.378Z,93704
2019-01-31T09:12:31.903Z,93702
2019-01-31T09:13:41.433Z,93709
2019-01-31T09:14:50.965Z,93703
2019-01-31T09:16:00.497Z,93708
2019-01-31T09:17:10.039Z,93703
2019-01-31T09:18:19.571Z,93702
2019-01-31T09:19:29.100Z,93703
2019-01-31T09:20:38.640Z,93708
2019-01-31T09:21:48.168Z,93709
2019-01-31T09:22:57.702Z,93711
2019-01-31T09:24:07.226Z,93712
2019-01-31T09:25:16.760Z,93705
2019-01-31T09:26:26.293Z,93704
2019-01-31T09:27:35.826Z,93704
2019-01-31T09:28:45.350Z,93703
2019-01-31T09:29:54.869Z,93704
2019-01-31T09:31:04.405Z,93708
2019-01-31T09:32:13.973Z,93709
2019-01-31T09:33:23.488Z,93711
2019-01-31T09:34:33.014Z,93710
2019-01-31T09:35:42.550Z,93705
2019-01-31T09:36:52.067Z,93704
2019-01-31T09:38:01.600Z,93704
2019-01-31T09:39:11.119Z,93709
2019-01-31T09:40:20.646Z,93706
2019-01-31T09:41:30.171Z,93711
2019-01-31T09:42:39.722Z,93711
2019-01-31T09:43:49.242Z,93713
2019-01-31T09:44:58.789Z,93716
2019-01-31T09:46:08.314Z,93721
2019-01-31T09:47:17.834Z,93718
2019-01-31T09:48:27.407Z,93718
2019-01-31T09:49:37.033Z,93717
2019-01-31T09:50:46.439Z,93716
2019-01-31T09:51:55.964Z,93709
2019-01-31T09:53:05.521Z,93715
2019-01-31T09:54:15.041Z,93716
2019-01-31T09:55:24.546Z,93722
2019-01-31T09:56:34.785Z,93715
2019-01-31T09:57:43.614Z,93715
2019-01-31T09:58:53.138Z,93718
2019-01-31T10:00:02.668Z,93716
2019-01-31T10:01:12.208Z,93721
2019-01-31T10:02:21.732Z,93719
2019-01-31T10:03:31.274Z,93718
2019-01-31T10:04:40.788Z,93719
2019-01-31T10:05:50.311Z,93721
2019-01-31T10:06:59.827Z,93721
2019-01-31T10:08:09.358Z,93725
2019-01-31T10:09:18.877Z,93725
2019-01-31T10:10:28.406Z,93724
2019-01-31T10:11:37.906Z,93729
2019-01-31T10:12:47.541Z,93728
2019-01-31T10:13:57.117Z,93730
2019-01-31T10:15:06.481Z,93729
2019-01-31T10:16:15.987Z,93724
2019-01-31T10:17:25.545Z,93723
2019-01-31T10:18:35.080Z,93728
2019-01-31T10:19:44.627Z,93716
2019-01-31T10:20:54.163Z,93714
2019-01-31T10:22:03.692Z,93716
2019-01-31T10:23:13.184Z,93714
2019-01-31T10:24:22.782Z,93717
2019-01-31T10:25:32.228Z,93713
2019-01-31T10:26:41.747Z,93711
2019-01-31T10:27:51.288Z,93705
2019-01-31T10:29:02.061Z,93709
2019-01-31T10:30:10.337Z,93707
2019-01-31T10:31:19.862Z,93709
2019-01-31T10:32:29.398Z,93706
2019-01-31T10:33:38.931Z,93703
2019-01-31T10:34:48.445Z,93702
2019-01-31T10:35:57.963Z,93700
2019-01-31T10:37:08.522Z,93698
2019-01-31T10:38:18.029Z,93701
2019-01-31T10:39:27.541Z,93702
2019-01-31T10:40:38.053Z,93704
2019-01-31T10:41:47.569Z,93704
2019-01-31T10:42:57.199Z,93697
2019-01-31T10:44:06.714Z,93702
2019-01-31T10:45:16.236Z,93699
2019-01-31T10:46:26.716Z,93696
2019-01-31T10:47:36.340Z,93694
2019-01-31T10:48:45.770Z,93697
2019-01-31T10:49:55.277Z,93694
2019-01-31T10:51:04.807Z,93691
2019-01-31T10:52:14.342Z,93691
2019-01-31T10:53:23.870Z,93689
2019-01-31T10:54:33.383Z,93695
2019-01-31T10:55:42.904Z,93690
2019-01-31T10:56:52.416Z,93692
2019-01-31T10:58:01.957Z,93690
2019-01-31T10:59:11.490Z,93683
2019-01-31T11:00:21.008Z,93685
2019-01-31T11:01:30.521Z,93683
2019-01-31T11:02:40.059Z,93687
2019-01-31T11:03:50.561Z,93687
2019-01-31T11:05:00.087Z,93684
2019-01-31T11:06:09.588Z,93682
2019-01-31T11:07:19.143Z,93682
2019-01-31T11:08:28.671Z,93683
2019-01-31T11:09:38.186Z,93680
2019-01-31T11:10:47.706Z,93682
2019-01-31T11:11:57.220Z,93682
2019-01-31T11:13:06.750Z,93680
2019-01-31T11:14:16.273Z,93679
2019-01-31T11:15:25.811Z,93673
2019-01-31T11:16:35.326Z,93675
2019-01-31T11:17:44.874Z,93675
2019-01-31T11:18:55.082Z,93675
2019-01-31T11:20:04.908Z,93668
2019-01-31T11:21:14.414Z,93669
2019-01-31T11:22:23.930Z,93665
2019-01-31T11:23:33.470Z,93671
2019-01-31T11:24:42.994Z,93668
2019-01-31T11:25:52.515Z,93668
2019-01-31T11:27:02.054Z,93670
2019-01-31T11:28:11.604Z,93666
2019-01-31T11:29:21.109Z,93669
2019-01-31T11:30:30.621Z,93668
2019-01-31T11:31:40.130Z,93670
2019-01-31T11:32:49.656Z,93658
2019-01-31T11:33:59.205Z,93661
2019-01-31T11:35:08.711Z,93662
2019-01-31T11:36:18.231Z,93660
2019-01-31T11:37:27.738Z,93654
2019-01-31T11:38:37.291Z,93657
2019-01-31T11:39:46.799Z,93657
2019-01-31T11:40:56.312Z,93660
2019-01-31T11:42:05.829Z,93658
2019-01-31T11:43:15.375Z,93659
2019-01-31T11:44:24.878Z,93652
2019-01-31T11:45:34.406Z,93653
2019-01-31T11:46:43.905Z,93649
2019-01-31T11:47:53.413Z,93650
2019-01-31T11:49:02.988Z,93659
2019-01-31T11:50:12.501Z,93654
2019-01-31T11:51:22.006Z,93650
2019-01-31T11:52:31.516Z,93649
2019-01-31T11:53:41.067Z,93646
2019-01-31T11:54:50.578Z,93652
2019-01-31T11:56:00.089Z,93654
2019-01-31T11:57:09.609Z,93650
2019-01-31T11:58:19.135Z,93653
2019-01-31T11:59:28.648Z,93655
2019-01-31T12:00:38.158Z,93648
2019-01-31T12:01:47.748Z,93644
2019-01-31T12:02:57.269Z,93642
2019-01-31T12:04:06.801Z,93641
2019-01-31T12:05:16.326Z,93643
2019-01-31T12:06:25.832Z,93640
2019-01-31T12:07:36.564Z,93639
2019-01-31T12:08:44.863Z,93645
2019-01-31T12:09:54.380Z,93642
2019-01-31T12:11:03.889Z,93642
2019-01-31T12:12:13.407Z,93647
2019-01-31T12:13:23.831Z,93640
2019-01-31T12:14:32.468Z,93638
2019-01-31T12:15:41.990Z,93631
2019-01-31T12:16:51.504Z,93633
2019-01-31T12:18:01.009Z,93644
2019-01-31T12:19:10.539Z,93630
2019-01-31T12:20:20.083Z,93630
2019-01-31T12:21:29.611Z,93632
2019-01-31T12:22:39.114Z,93628
2019-01-31T12:23:48.635Z,93628
2019-01-31T12:24:58.160Z,93622
2019-01-31T12:26:07.677Z,93625
2019-01-31T12:27:17.186Z,93622
2019-01-31T12:28:26.738Z,93621
2019-01-31T12:29:36.259Z,93621
2019-01-31T12:30:45.788Z,93627
2019-01-31T12:31:55.314Z,93621
2019-01-31T12:33:04.825Z,93616
2019-01-31T12:34:14.388Z,93615
2019-01-31T12:35:23.923Z,93615
2019-01-31T12:36:33.449Z,93617
2019-01-31T12:37:42.966Z,93613
2019-01-31T12:38:54.830Z,93616
2019-01-31T12:40:02.025Z,93616
2019-01-31T12:41:11.534Z,93612
2019-01-31T12:42:21.036Z,93611
2019-01-31T12:43:34.906Z,93610
2019-01-31T12:44:40.173Z,93610
2019-01-31T12:45:49.693Z,93609
2019-01-31T12:46:59.220Z,93608
2019-01-31T12:48:08.736Z,93609
2019-01-31T12:49:18.293Z,93608
2019-01-31T12:50:27.823Z,93608
2019-01-31T12:51:37.346Z,93603
2019-01-31T12:52:46.861Z,93605
2019-01-31T12:53:56.393Z,93607
2019-01-31T12:55:05.902Z,93602
2019-01-31T12:56:15.410Z,93593
2019-01-31T12:57:24.916Z,93598
2019-01-31T12:58:34.504Z,93594
2019-01-31T12:59:44.012Z,93589
2019-01-31T13:00:53.523Z,93588
2019-01-31T13:02:03.041Z,93587
2019-01-31T13:03:12.566Z,93584
2019-01-31T13:04:22.119Z,93577
2019-01-31T13:05:31.627Z,93574
2019-01-31T13:06:41.167Z,93577
2019-01-31T13:07:50.679Z,93576
2019-01-31T13:09:00.225Z,93574
2019-01-31T13:10:09.755Z,93575
2019-01-31T13:11:19.273Z,93575
2019-01-31T13:12:28.780Z,93577
2019-01-31T13:13:45.829Z,93575
2019-01-31T13:14:48.831Z,93571
2019-01-31T13:15:58.339Z,93570
2019-01-31T13:17:07.856Z,93568
2019-01-31T13:18:17.391Z,93571
2019-01-31T13:19:26.955Z,93567
2019-01-31T13:20:36.461Z,93569
2019-01-31T13:21:45.979Z,93571
2019-01-31T13:22:55.509Z,93568
2019-01-31T13:24:05.063Z,93571
2019-01-31T13:25:14.573Z,93568
2019-01-31T13:26:24.097Z,93570
2019-01-31T13:27:33.609Z,93562
2019-01-31T13:28:43.139Z,93579
2019-01-31T13:29:52.694Z,93579
2019-01-31T13:31:02.217Z,93572
2019-01-31T13:32:11.740Z,93566
2019-01-31T13:33:21.264Z,93575
2019-01-31T13:34:30.798Z,93569
2019-01-31T13:35:40.313Z,93572
2019-01-31T13:36:49.843Z,93568
2019-01-31T13:37:59.362Z,93566
2019-01-31T13:39:08.910Z,93570
2019-01-31T13:40:18.444Z,93565
2019-01-31T13:41:27.967Z,93568
2019-01-31T13:42:37.492Z,93569
2019-01-31T13:43:56.987Z,93561
2019-01-31T13:44:57.530Z,93565
2019-01-31T13:46:07.041Z,93561
2019-01-31T13:47:16.565Z,93567
2019-01-31T13:48:26.086Z,93561
2019-01-31T13:49:35.639Z,93560
2019-01-31T13:50:45.155Z,93562
2019-01-31T13:51:54.674Z,93569
2019-01-31T13:53:04.197Z,93563
2019-01-31T13:54:13.743Z,93564
2019-01-31T13:55:23.265Z,93565
2019-01-31T13:56:32.789Z,93569
2019-01-31T13:57:43.267Z,93575
2019-01-31T13:58:52.781Z,93574
2019-01-31T14:00:02.319Z,93571
2019-01-31T14:01:11.839Z,93571
2019-01-31T14:02:21.355Z,93570
2019-01-31T14:03:30.879Z,93572
2019-01-31T14:04:40.429Z,93567
2019-01-31T14:05:49.940Z,93566
2019-01-31T14:06:59.450Z,93568
2019-01-31T14:08:08.952Z,93575
2019-01-31T14:09:18.531Z,93571
2019-01-31T14:10:28.047Z,93572
2019-01-31T14:11:38.554Z,93578
2019-01-31T14:12:48.080Z,93575
2019-01-31T14:14:08.443Z,93576
2019-01-31T14:15:08.119Z,93574
2019-01-31T14:16:17.637Z,93574
2019-01-31T14:17:27.143Z,93573
2019-01-31T14:18:36.658Z,93572
2019-01-31T14:19:46.190Z,93573
2019-01-31T14:20:55.751Z,93573
2019-01-31T14:22:05.267Z,93572
2019-01-31T14:23:14.790Z,93572
2019-01-31T14:24:24.355Z,93570
2019-01-31T14:25:33.878Z,93569
2019-01-31T14:26:43.381Z,93561
2019-01-31T14:27:52.895Z,93560
2019-01-31T14:29:02.409Z,93554
2019-01-31T14:30:11.950Z,93556
2019-01-31T14:31:21.472Z,93561
2019-01-31T14:32:30.998Z,93560
2019-01-31T14:33:40.514Z,93559
2019-01-31T14:34:50.089Z,93562
2019-01-31T14:35:59.604Z,93565
2019-01-31T14:37:09.125Z,93560
2019-01-31T14:38:18.649Z,93562
2019-01-31T14:39:28.212Z,93563
2019-01-31T14:40:37.733Z,93561
2019-01-31T14:41:47.249Z,93566
2019-01-31T14:42:56.770Z,93567
2019-01-31T14:44:06.302Z,93565
2019-01-31T14:45:16.843Z,93559
2019-01-31T14:46:26.356Z,93562
2019-01-31T14:47:35.878Z,93570
2019-01-31T14:48:45.412Z,93565
2019-01-31T14:49:54.975Z,93566
2019-01-31T14:51:04.532Z,93567
2019-01-31T14:52:14.058Z,93569
2019-01-31T14:53:23.576Z,93571
2019-01-31T14:54:33.110Z,93570
2019-01-31T14:55:42.658Z,93567